Aeroporto :
LOGIN :

Iscrizione | Disclaimer

   EN    FR    IT 

 










Sommario :    VFR   VFR Marginale   IFR   IFR Intensivo   IFR Molto Intensivo
Visibilità : 
Base nubi : 
>= 8 km
>= 3000ft
5 / 8 km
1000 / 3000 ft
1500m / 5 km
500 / 1000 ft
800 / 1500m
200 / 500 ft
< 800m
< 200 ft
Simboli :   Temporali  Nebbia  Neve Forte  Precipitazioni Forti  Vento > 20 kt
SIGMETs :   Varie  Temporali  Ghiacco  Turbolenza  Onda orograficha  Ceneri Vulcaniche






- Altitudine del aeroporto : 85 ft
- Codice IATA : SFA


DTTX - Thyna/El Maou - Sfax

ULTIMO METAR :
  • 301600Z 17007KT 130V200 25/17 Q1009

METARs OBSOLETI :
  • 301500Z 14008KT 090V160 24/18 Q1010
  • 301400Z 13011KT 9999 SCT033 25/19 Q1011

TAF TAF DTTX
Valido dal 30 a 12 ore il 31 a 12 ore UTC


301100Z 3012/3112 12005KT 8000 SCT033
BECMG 3014/3016 04010KT
PROB30
TEMPO 3017/3020 -SHRA FEW030CB



MetMap, La meteo Aeronautica in un colpo d'occhio ! - Copyright ORBIFLY Dicembre 2007 - Disclaimer

ORBIFLY MET'MAP TEAM :

Programmazione e sviluppo : Alexandra Zaïnal
Concezione : Baudouin d'Aumeries
Aiuto per la programmazione : Marc-Olivier Méhu
Supporto tecnico e logistico : Manuel Goepfert
Aiuto per la traduzione : Arnaldo La Scala

Contatto : metmap@orbifly.com




FONTI E CREDITI :

   NOAA